createdAt,value
2023-03-06T00:00:21.515Z,100600.31
2023-03-06T00:02:52.092Z,100602.00
2023-03-06T00:05:19.918Z,100591.56
2023-03-06T00:07:47.583Z,100602.94
2023-03-06T00:10:20.900Z,100590.63
2023-03-06T00:12:48.599Z,100585.38
2023-03-06T00:15:16.244Z,100592.41
2023-03-06T00:17:43.968Z,100586.28
2023-03-06T00:20:13.852Z,100585.44
2023-03-06T00:22:41.573Z,100587.19
2023-03-06T00:25:11.244Z,100581.97
2023-03-06T00:27:38.923Z,100581.97
2023-03-06T00:30:08.043Z,100575.00
2023-03-06T00:32:35.762Z,100580.25
2023-03-06T00:35:03.508Z,100579.38
2023-03-06T00:37:32.565Z,100568.88
2023-03-06T00:40:00.229Z,100564.50
2023-03-06T00:42:27.888Z,100575.00
2023-03-06T00:44:55.566Z,100568.03
2023-03-06T00:47:23.279Z,100579.38
2023-03-06T00:49:51.012Z,100571.53
2023-03-06T00:52:18.690Z,100577.63
2023-03-06T00:54:47.724Z,100577.63
2023-03-06T00:57:15.424Z,100576.78
2023-03-06T00:59:43.125Z,100567.97
2023-03-06T01:02:10.796Z,100566.22
2023-03-06T01:04:38.524Z,100575.84
2023-03-06T01:07:06.314Z,100590.69
2023-03-06T01:09:33.995Z,100581.97
2023-03-06T01:12:03.015Z,100579.38
2023-03-06T01:14:31.196Z,100573.28
2023-03-06T01:16:59.012Z,100569.75
2023-03-06T01:19:26.672Z,100565.34
2023-03-06T01:21:54.360Z,100563.63
2023-03-06T01:24:23.922Z,100564.50
2023-03-06T01:26:51.620Z,100556.69
2023-03-06T01:29:20.695Z,100559.34
2023-03-06T01:31:48.422Z,100554.13
2023-03-06T01:34:16.113Z,100543.63
2023-03-06T01:36:43.791Z,100546.22
2023-03-06T01:39:11.537Z,100545.34
2023-03-06T01:41:39.199Z,100540.09
2023-03-06T01:44:06.869Z,100534.84
2023-03-06T01:46:41.766Z,100531.41
2023-03-06T01:49:17.604Z,100527.03
2023-03-06T01:51:48.567Z,100521.75
2023-03-06T01:54:17.508Z,100524.38
2023-03-06T01:56:46.490Z,100525.28
2023-03-06T01:59:14.330Z,100522.66
2023-03-06T02:01:43.356Z,100517.44
2023-03-06T02:04:11.910Z,100515.69
2023-03-06T02:06:40.646Z,100516.53
2023-03-06T02:09:08.300Z,100517.41
2023-03-06T02:11:35.992Z,100510.47
2023-03-06T02:14:03.682Z,100512.25
2023-03-06T02:16:32.494Z,100507.00
2023-03-06T02:19:01.765Z,100506.13
2023-03-06T02:21:31.746Z,100499.13
2023-03-06T02:24:17.800Z,100501.72
2023-03-06T02:26:46.823Z,100503.53
2023-03-06T02:29:15.680Z,100497.44
2023-03-06T02:31:43.335Z,100496.59
2023-03-06T02:34:44.383Z,100495.72
2023-03-06T02:37:12.141Z,100492.28
2023-03-06T02:39:40.998Z,100486.19
2023-03-06T02:42:10.055Z,100479.22
2023-03-06T02:44:37.762Z,100477.41
2023-03-06T02:47:05.523Z,100479.22
2023-03-06T02:49:33.563Z,100479.22
2023-03-06T02:52:01.265Z,100471.38
2023-03-06T02:54:29.296Z,100468.78
2023-03-06T02:56:56.975Z,100460.06
2023-03-06T02:59:26.238Z,100460.06
2023-03-06T03:01:54.657Z,100457.44
2023-03-06T03:04:22.335Z,100458.31
2023-03-06T03:06:50.003Z,100453.09
2023-03-06T03:09:17.667Z,100446.94
2023-03-06T03:11:45.392Z,100453.03
2023-03-06T03:14:13.039Z,100439.97
2023-03-06T03:16:42.227Z,100444.34
2023-03-06T03:19:09.924Z,100447.00
2023-03-06T03:21:38.876Z,100439.13
2023-03-06T03:24:07.158Z,100440.91
2023-03-06T03:26:34.817Z,100436.56
2023-03-06T03:29:04.164Z,100439.19
2023-03-06T03:31:32.237Z,100440.06
2023-03-06T03:34:01.308Z,100441.84
2023-03-06T03:36:29.123Z,100432.22
2023-03-06T03:38:57.628Z,100433.97
2023-03-06T03:41:25.369Z,100429.59
2023-03-06T03:43:53.035Z,100430.50
2023-03-06T03:46:21.516Z,100427.88
2023-03-06T03:48:49.320Z,100429.69
2023-03-06T03:51:18.333Z,100431.41
2023-03-06T03:53:46.010Z,100426.13
2023-03-06T03:56:13.751Z,100423.56
2023-03-06T03:58:41.415Z,100425.25
2023-03-06T04:01:09.154Z,100413.06
2023-03-06T04:03:36.893Z,100410.44
2023-03-06T04:06:04.855Z,100411.38
2023-03-06T04:08:34.978Z,100406.13
2023-03-06T04:11:02.926Z,100407.84
2023-03-06T04:13:30.594Z,100398.25
2023-03-06T04:15:59.612Z,100401.69
2023-03-06T04:18:28.521Z,100397.38
2023-03-06T04:20:56.329Z,100395.66
2023-03-06T04:23:24.209Z,100388.66
2023-03-06T04:25:53.244Z,100386.94
2023-03-06T04:28:20.998Z,100390.41
2023-03-06T04:30:48.700Z,100390.44
2023-03-06T04:33:16.427Z,100386.03
2023-03-06T04:35:44.123Z,100386.09
2023-03-06T04:38:11.832Z,100390.47
2023-03-06T04:40:39.543Z,100389.59
2023-03-06T04:43:08.599Z,100388.75
2023-03-06T04:45:36.337Z,100382.69
2023-03-06T04:48:04.450Z,100377.41
2023-03-06T04:50:32.577Z,100385.31
2023-03-06T04:53:01.327Z,100388.75
2023-03-06T04:55:29.222Z,100381.72
2023-03-06T04:57:57.107Z,100389.59
2023-03-06T05:00:30.245Z,100378.28
2023-03-06T05:02:58.320Z,100370.47
2023-03-06T05:05:25.998Z,100371.41
2023-03-06T05:07:54.008Z,100366.19
2023-03-06T05:10:21.919Z,100361.84
2023-03-06T05:12:49.590Z,100371.44
2023-03-06T05:15:17.368Z,100368.84
2023-03-06T05:17:47.385Z,100366.22
2023-03-06T05:20:15.483Z,100360.09
2023-03-06T05:22:43.156Z,100357.47
2023-03-06T05:25:11.608Z,100361.78
2023-03-06T05:27:39.410Z,100363.44
2023-03-06T05:30:08.342Z,100359.03
2023-03-06T05:32:36.158Z,100358.09
2023-03-06T05:35:05.512Z,100356.22
2023-03-06T05:37:33.482Z,100360.59
2023-03-06T05:40:01.320Z,100358.78
2023-03-06T05:42:31.393Z,100357.81
2023-03-06T05:44:59.165Z,100362.13
2023-03-06T05:47:26.972Z,100370.81
2023-03-06T05:49:54.698Z,100357.72
2023-03-06T05:52:23.745Z,100354.22
2023-03-06T05:54:51.532Z,100361.19
2023-03-06T05:57:19.942Z,100354.16
2023-03-06T05:59:47.724Z,100357.63
2023-03-06T06:02:15.580Z,100363.69
2023-03-06T06:04:43.615Z,100359.28
2023-03-06T06:07:13.637Z,100361.00
2023-03-06T06:09:43.452Z,100367.13
2023-03-06T06:12:11.225Z,100370.66
2023-03-06T06:14:38.892Z,100372.41
2023-03-06T06:17:06.735Z,100366.28
2023-03-06T06:19:34.412Z,100359.22
2023-03-06T06:22:03.790Z,100367.03
2023-03-06T06:24:32.217Z,100360.09
2023-03-06T06:27:03.745Z,100359.22
2023-03-06T06:29:31.789Z,100361.81
2023-03-06T06:31:59.564Z,100364.38
2023-03-06T06:34:27.328Z,100360.84
2023-03-06T06:36:55.481Z,100356.56
2023-03-06T06:39:23.692Z,100356.59
2023-03-06T06:42:09.700Z,100357.47
2023-03-06T06:44:41.716Z,100358.38
2023-03-06T06:47:25.761Z,100357.47
2023-03-06T06:49:54.266Z,100353.13
2023-03-06T06:52:22.155Z,100358.38
2023-03-06T06:54:49.935Z,100363.63
2023-03-06T06:57:17.659Z,100359.19
2023-03-06T06:59:46.713Z,100366.13
2023-03-06T07:02:15.605Z,100361.75
2023-03-06T07:04:56.501Z,100354.69
2023-03-06T07:07:28.263Z,100352.94
2023-03-06T07:09:56.119Z,100351.13
2023-03-06T07:12:23.799Z,100356.38
2023-03-06T07:14:52.868Z,100357.22
2023-03-06T07:17:20.547Z,100350.25
2023-03-06T07:19:48.510Z,100359.81
2023-03-06T07:22:16.210Z,100363.28
2023-03-06T07:24:43.903Z,100362.38
2023-03-06T07:27:11.564Z,100362.38
2023-03-06T07:29:39.235Z,100364.09
2023-03-06T07:32:08.471Z,100359.72
2023-03-06T07:34:36.201Z,100358.81
2023-03-06T07:37:04.259Z,100359.72
2023-03-06T07:39:31.971Z,100366.69
2023-03-06T07:41:59.788Z,100362.28
2023-03-06T07:44:27.580Z,100363.16
2023-03-06T07:46:55.312Z,100364.06
2023-03-06T07:49:24.380Z,100363.22
2023-03-06T07:51:52.042Z,100364.09
2023-03-06T07:54:19.736Z,100362.38
2023-03-06T07:56:47.440Z,100362.44
2023-03-06T07:59:15.092Z,100373.72
2023-03-06T08:01:42.755Z,100375.47
2023-03-06T08:04:10.566Z,100376.34
2023-03-06T08:06:39.591Z,100376.34
2023-03-06T08:09:07.254Z,100367.59
2023-03-06T08:11:34.939Z,100368.44
2023-03-06T08:14:02.646Z,100370.97
2023-03-06T08:16:31.156Z,100375.31
2023-03-06T08:18:59.189Z,100382.28
2023-03-06T08:21:27.654Z,100375.31
2023-03-06T08:23:56.940Z,100377.81
2023-03-06T08:26:25.701Z,100378.59
2023-03-06T08:28:53.439Z,100376.88
2023-03-06T08:31:25.775Z,100383.81
2023-03-06T08:33:53.508Z,100391.59
2023-03-06T08:36:21.180Z,100381.13
2023-03-06T08:38:48.854Z,100389.84
2023-03-06T08:41:17.862Z,100388.06
2023-03-06T08:43:45.555Z,100392.34
2023-03-06T08:46:13.234Z,100387.06
2023-03-06T08:48:41.025Z,100384.38
2023-03-06T08:51:09.455Z,100397.38
2023-03-06T08:53:42.993Z,100388.63
2023-03-06T08:56:17.587Z,100388.53
2023-03-06T08:58:45.447Z,100395.44
2023-03-06T09:01:16.725Z,100389.25
2023-03-06T09:03:44.442Z,100389.31
2023-03-06T09:06:12.200Z,100396.22
2023-03-06T09:08:42.953Z,100396.19
2023-03-06T09:11:10.749Z,100383.88
2023-03-06T09:13:39.773Z,100390.78
2023-03-06T09:16:08.855Z,100387.28
2023-03-06T09:18:36.548Z,100392.47
2023-03-06T09:21:04.815Z,100393.31
2023-03-06T09:23:32.568Z,100391.53
2023-03-06T09:26:02.343Z,100390.66
2023-03-06T09:28:30.090Z,100391.47
2023-03-06T09:30:59.257Z,100391.47
2023-03-06T09:33:28.708Z,100393.19
2023-03-06T09:35:57.107Z,100385.31
2023-03-06T09:38:25.685Z,100393.19
2023-03-06T09:41:01.144Z,100393.09
2023-03-06T09:43:31.122Z,100391.41
2023-03-06T09:46:00.298Z,100386.06
2023-03-06T09:48:31.633Z,100386.84
2023-03-06T09:51:00.115Z,100384.22
2023-03-06T09:53:34.197Z,100391.19
2023-03-06T09:56:02.911Z,100392.06
2023-03-06T09:58:31.486Z,100386.78
2023-03-06T10:01:01.879Z,100384.09
2023-03-06T10:03:31.596Z,100383.97
2023-03-06T10:06:02.637Z,100377.91
2023-03-06T10:08:35.436Z,100385.81
2023-03-06T10:11:04.432Z,100375.31
2023-03-06T10:13:37.627Z,100374.44
2023-03-06T10:16:14.065Z,100364.81
2023-03-06T10:18:41.794Z,100377.84
2023-03-06T10:21:21.166Z,100380.41
2023-03-06T10:23:53.031Z,100367.19
2023-03-06T10:26:21.371Z,100373.28
2023-03-06T10:28:53.287Z,100375.84
2023-03-06T10:31:24.371Z,100376.66
2023-03-06T10:33:55.289Z,100380.16
2023-03-06T10:36:25.081Z,100375.00
2023-03-06T10:38:52.840Z,100375.00
2023-03-06T10:41:25.937Z,100374.03
2023-03-06T10:44:19.009Z,100370.50
2023-03-06T10:46:49.147Z,100373.19
2023-03-06T10:49:28.670Z,100368.78
2023-03-06T10:51:57.251Z,100370.47
2023-03-06T10:54:24.978Z,100365.16
2023-03-06T10:56:52.664Z,100368.53
2023-03-06T10:59:22.801Z,100359.75
2023-03-06T11:01:52.713Z,100357.94
2023-03-06T11:04:28.309Z,100348.28
2023-03-06T11:07:22.894Z,100355.22
2023-03-06T11:10:05.459Z,100353.50
2023-03-06T11:12:33.622Z,100353.63
2023-03-06T11:15:23.389Z,100355.50
2023-03-06T11:18:03.588Z,100359.16
2023-03-06T11:20:50.167Z,100350.53
2023-03-06T11:23:19.229Z,100354.06
2023-03-06T11:25:48.526Z,100361.09
2023-03-06T11:28:19.699Z,100359.41
2023-03-06T11:30:48.332Z,100354.16
2023-03-06T11:33:20.783Z,100357.66
2023-03-06T11:35:52.370Z,100359.31
2023-03-06T11:38:21.723Z,100354.75
2023-03-06T11:40:52.364Z,100349.25
2023-03-06T11:43:23.297Z,100351.78
2023-03-06T11:45:55.547Z,100350.81
2023-03-06T11:48:25.998Z,100342.09
2023-03-06T11:50:54.326Z,100349.81
2023-03-06T11:53:23.023Z,100350.53
2023-03-06T11:55:55.700Z,100348.75
2023-03-06T11:58:48.732Z,100339.03
2023-03-06T12:01:19.332Z,100336.31
2023-03-06T12:04:22.370Z,100329.19
2023-03-06T12:06:53.052Z,100323.09
2023-03-06T12:09:25.362Z,100331.75
2023-03-06T12:12:01.484Z,100329.09
2023-03-06T12:14:34.705Z,100328.13
2023-03-06T12:17:14.657Z,100324.56
2023-03-06T12:20:02.145Z,100325.44
2023-03-06T12:22:39.462Z,100319.13
2023-03-06T12:25:20.238Z,100319.06
2023-03-06T12:27:51.647Z,100309.31
2023-03-06T12:30:37.560Z,100315.47
2023-03-06T12:33:11.367Z,100319.97
2023-03-06T12:35:50.123Z,100317.50
2023-03-06T12:38:30.600Z,100313.09
2023-03-06T12:41:05.011Z,100314.78
2023-03-06T12:43:58.167Z,100313.00
2023-03-06T12:46:26.373Z,100319.13
2023-03-06T12:49:00.658Z,100309.59
2023-03-06T12:51:29.710Z,100317.41
2023-03-06T12:53:57.447Z,100313.88
2023-03-06T12:56:25.125Z,100307.69
2023-03-06T12:58:53.600Z,100309.47
2023-03-06T13:01:44.851Z,100305.84
2023-03-06T13:04:41.763Z,100306.69
2023-03-06T13:07:26.236Z,100310.97
2023-03-06T13:09:59.900Z,100300.41
2023-03-06T13:12:36.948Z,100296.81
2023-03-06T13:15:38.571Z,100303.66
2023-03-06T13:18:39.875Z,100301.97
2023-03-06T13:21:24.292Z,100300.22
2023-03-06T13:23:53.351Z,100298.47
2023-03-06T13:26:54.180Z,100299.44
2023-03-06T13:29:42.881Z,100289.94
2023-03-06T13:32:17.476Z,100293.66
2023-03-06T13:34:46.844Z,100293.78
2023-03-06T13:37:39.592Z,100290.28
2023-03-06T13:40:27.190Z,100283.38
2023-03-06T13:43:02.581Z,100280.84
2023-03-06T13:45:32.512Z,100286.09
2023-03-06T13:48:30.272Z,100286.09
2023-03-06T13:50:48.101Z,100279.94
2023-03-06T13:53:41.703Z,100279.94
2023-03-06T13:56:42.026Z,100275.59
2023-03-06T13:59:23.180Z,100270.41
2023-03-06T14:01:55.164Z,100270.34
2023-03-06T14:04:38.872Z,100272.91
2023-03-06T14:07:25.054Z,100267.66
2023-03-06T14:10:02.211Z,100269.44
2023-03-06T14:12:32.346Z,100265.09
2023-03-06T14:15:02.760Z,100261.69
2023-03-06T14:17:31.145Z,100252.16
2023-03-06T14:20:00.851Z,100261.78
2023-03-06T14:22:28.540Z,100248.72
2023-03-06T14:24:59.665Z,100248.72
2023-03-06T14:27:43.841Z,100246.94
2023-03-06T14:30:16.205Z,100242.47
2023-03-06T14:32:43.986Z,100237.13
2023-03-06T14:35:26.283Z,100240.53
2023-03-06T14:37:55.475Z,100244.00
2023-03-06T14:40:27.456Z,100237.88
2023-03-06T14:43:27.851Z,100240.44
2023-03-06T14:45:58.057Z,100239.75
2023-03-06T14:48:26.928Z,100247.72
2023-03-06T14:50:55.530Z,100239.84
2023-03-06T14:53:25.573Z,100241.69
2023-03-06T14:55:54.230Z,100234.75
2023-03-06T14:58:23.117Z,100236.53
2023-03-06T15:00:51.994Z,100232.22
2023-03-06T15:03:23.035Z,100232.22
2023-03-06T15:05:50.778Z,100225.25
2023-03-06T15:08:19.353Z,100230.50
2023-03-06T15:10:55.836Z,100224.38
2023-03-06T15:13:24.635Z,100220.00
2023-03-06T15:15:59.964Z,100220.84
2023-03-06T15:18:30.596Z,100220.84
2023-03-06T15:21:07.766Z,100216.47
2023-03-06T15:23:36.603Z,100216.38
2023-03-06T15:26:05.591Z,100211.91
2023-03-06T15:28:35.074Z,100213.44
2023-03-06T15:31:04.471Z,100208.06
2023-03-06T15:33:33.528Z,100212.38
2023-03-06T15:36:01.973Z,100207.22
2023-03-06T15:38:33.848Z,100202.94
2023-03-06T15:41:02.305Z,100213.44
2023-03-06T15:43:30.776Z,100207.31
2023-03-06T15:45:59.690Z,100200.38
2023-03-06T15:48:28.625Z,100190.78
2023-03-06T15:50:57.726Z,100189.91
2023-03-06T15:53:25.601Z,100191.69
2023-03-06T15:55:53.347Z,100183.00
2023-03-06T15:58:23.410Z,100187.47
2023-03-06T16:00:51.159Z,100184.97
2023-03-06T16:03:18.897Z,100176.16
2023-03-06T16:05:46.591Z,100180.53
2023-03-06T16:08:16.168Z,100185.06
2023-03-06T16:10:44.327Z,100169.41
2023-03-06T16:13:13.218Z,100166.88
2023-03-06T16:15:41.721Z,100164.31
2023-03-06T16:18:10.787Z,100162.56
2023-03-06T16:20:38.532Z,100159.16
2023-03-06T16:23:10.182Z,100164.50
2023-03-06T16:25:39.687Z,100155.03
2023-03-06T16:28:08.704Z,100156.00
2023-03-06T16:30:38.210Z,100160.41
2023-03-06T16:33:06.086Z,100150.78
2023-03-06T16:35:33.834Z,100156.19
2023-03-06T16:38:01.563Z,100144.03
2023-03-06T16:40:30.364Z,100145.00
2023-03-06T16:42:59.820Z,100145.84
2023-03-06T16:45:27.495Z,100152.06
2023-03-06T16:47:55.851Z,100157.31
2023-03-06T16:50:24.907Z,100152.13
2023-03-06T16:52:53.458Z,100147.78
2023-03-06T16:55:21.290Z,100148.75
2023-03-06T16:57:49.268Z,100152.34
2023-03-06T17:00:19.620Z,100149.72
2023-03-06T17:02:48.973Z,100148.03
2023-03-06T17:05:16.726Z,100147.19
2023-03-06T17:07:44.398Z,100144.72
2023-03-06T17:10:13.856Z,100151.75
2023-03-06T17:12:41.628Z,100142.22
2023-03-06T17:15:10.099Z,100143.09
2023-03-06T17:17:39.143Z,100141.28
2023-03-06T17:20:08.222Z,100136.88
2023-03-06T17:22:36.067Z,100136.03
2023-03-06T17:25:04.751Z,100136.03
2023-03-06T17:27:32.470Z,100132.47
2023-03-06T17:30:00.370Z,100136.88
2023-03-06T17:32:28.138Z,100131.66
2023-03-06T17:34:57.200Z,100129.75
2023-03-06T17:37:24.936Z,100134.09
2023-03-06T17:39:52.665Z,100123.59
2023-03-06T17:42:20.352Z,100123.59
2023-03-06T17:44:48.054Z,100121.09
2023-03-06T17:47:15.784Z,100118.47
2023-03-06T17:49:43.672Z,100112.38
2023-03-06T17:52:12.817Z,100101.88
2023-03-06T17:54:40.491Z,100101.00
2023-03-06T17:57:08.272Z,100093.13
2023-03-06T17:59:35.961Z,100094.88
2023-03-06T18:02:03.778Z,100093.06
2023-03-06T18:04:31.565Z,100088.69
2023-03-06T18:06:59.314Z,100093.94
2023-03-06T18:09:28.544Z,100083.47
2023-03-06T18:11:56.247Z,100085.25
2023-03-06T18:14:24.289Z,100078.31
2023-03-06T18:16:52.006Z,100078.34
2023-03-06T18:19:19.758Z,100080.16
2023-03-06T18:21:48.005Z,100066.13
2023-03-06T18:24:15.709Z,100058.34
2023-03-06T18:26:44.765Z,100058.34
2023-03-06T18:29:12.452Z,100061.03
2023-03-06T18:31:40.774Z,100054.88
2023-03-06T18:34:09.299Z,100053.16
2023-03-06T18:36:37.082Z,100046.19
2023-03-06T18:39:05.119Z,100044.44
2023-03-06T18:41:32.935Z,100035.66
2023-03-06T18:44:02.161Z,100031.38
2023-03-06T18:46:31.170Z,100022.69
2023-03-06T18:48:58.853Z,100015.69
2023-03-06T18:51:26.663Z,100013.94
2023-03-06T18:53:54.372Z,100004.34
2023-03-06T18:56:22.528Z,100003.47
2023-03-06T18:58:50.297Z,100003.50
2023-03-06T19:01:19.487Z,99995.69
2023-03-06T19:03:47.532Z,99990.44
2023-03-06T19:06:16.813Z,99984.34
2023-03-06T19:08:44.709Z,99976.56
2023-03-06T19:11:13.912Z,99979.22
2023-03-06T19:13:41.812Z,99973.94
2023-03-06T19:16:09.622Z,99973.13
2023-03-06T19:18:38.689Z,99963.50
2023-03-06T19:21:09.843Z,99961.69
2023-03-06T19:23:37.952Z,99962.56
2023-03-06T19:26:07.365Z,99967.91
2023-03-06T19:28:35.636Z,99956.50
2023-03-06T19:31:08.999Z,99951.25
2023-03-06T19:33:38.456Z,99948.66
2023-03-06T19:36:06.881Z,99940.78
2023-03-06T19:38:34.646Z,99932.03
2023-03-06T19:41:02.427Z,99932.03
2023-03-06T19:43:30.170Z,99925.97
2023-03-06T19:45:57.998Z,99922.56
2023-03-06T19:48:25.799Z,99915.63
2023-03-06T19:50:54.905Z,99913.78
2023-03-06T19:53:23.114Z,99913.78
2023-03-06T19:55:50.814Z,99906.78
2023-03-06T19:58:18.491Z,99899.00
2023-03-06T20:00:46.210Z,99897.38
2023-03-06T20:03:13.949Z,99892.22
2023-03-06T20:05:47.004Z,99879.13
2023-03-06T20:08:16.143Z,99875.66
2023-03-06T20:10:43.855Z,99867.84
2023-03-06T20:13:11.638Z,99869.66
2023-03-06T20:15:39.389Z,99856.69
2023-03-06T20:18:07.150Z,99863.63
2023-03-06T20:20:35.993Z,99848.84
2023-03-06T20:23:04.566Z,99847.03
2023-03-06T20:25:35.840Z,99838.19
2023-03-06T20:28:03.547Z,99833.81
2023-03-06T20:30:37.755Z,99819.78
2023-03-06T20:33:06.001Z,99821.50
2023-03-06T20:35:33.702Z,99815.28
2023-03-06T20:38:01.419Z,99813.47
2023-03-06T20:40:29.138Z,99810.84
2023-03-06T20:42:58.211Z,99803.63
2023-03-06T20:45:25.931Z,99805.34
2023-03-06T20:47:56.170Z,99797.34
2023-03-06T20:50:23.965Z,99793.81
2023-03-06T20:52:54.513Z,99786.88
2023-03-06T20:55:22.218Z,99781.50
2023-03-06T20:57:50.767Z,99774.41
2023-03-06T21:00:20.966Z,99769.97
2023-03-06T21:02:48.687Z,99761.97
2023-03-06T21:05:16.586Z,99753.16
2023-03-06T21:07:44.260Z,99747.91
2023-03-06T21:10:14.460Z,99741.72
2023-03-06T21:12:42.305Z,99737.31
2023-03-06T21:15:10.557Z,99738.19
2023-03-06T21:17:40.474Z,99727.69
2023-03-06T21:20:09.224Z,99724.09
2023-03-06T21:22:36.955Z,99719.59
2023-03-06T21:25:04.886Z,99716.09
2023-03-06T21:27:32.650Z,99698.50
2023-03-06T21:30:00.370Z,99708.13
2023-03-06T21:32:28.185Z,99703.81
2023-03-06T21:34:57.301Z,99690.69
2023-03-06T21:37:25.032Z,99686.31
2023-03-06T21:39:52.957Z,99684.63
2023-03-06T21:42:20.653Z,99674.31
2023-03-06T21:44:48.506Z,99669.19
2023-03-06T21:47:16.341Z,99669.25
2023-03-06T21:49:44.082Z,99659.69
2023-03-06T21:52:13.201Z,99656.28
2023-03-06T21:54:41.346Z,99645.84
2023-03-06T21:57:09.018Z,99639.75
2023-03-06T21:59:37.444Z,99633.66
2023-03-06T22:02:05.285Z,99624.16
2023-03-06T22:04:32.995Z,99620.63
2023-03-06T22:07:00.704Z,99611.75
2023-03-06T22:09:29.732Z,99606.50
2023-03-06T22:11:58.242Z,99610.94
2023-03-06T22:14:25.953Z,99600.56
2023-03-06T22:16:53.645Z,99593.75
2023-03-06T22:19:21.335Z,99589.41
2023-03-06T22:21:49.010Z,99578.91
2023-03-06T22:24:16.688Z,99574.59
2023-03-06T22:26:45.748Z,99565.78
2023-03-06T22:29:13.452Z,99561.47
2023-03-06T22:31:41.220Z,99553.75
2023-03-06T22:34:08.920Z,99544.09
2023-03-06T22:36:36.631Z,99538.88
2023-03-06T22:39:05.147Z,99525.75
2023-03-06T22:41:32.855Z,99518.81
2023-03-06T22:44:02.913Z,99511.88
2023-03-06T22:46:30.700Z,99510.09
2023-03-06T22:48:58.674Z,99498.78
2023-03-06T22:51:26.610Z,99492.72
2023-03-06T22:53:54.835Z,99480.47
2023-03-06T22:56:22.783Z,99476.16
2023-03-06T22:58:50.490Z,99470.97
2023-03-06T23:01:20.298Z,99465.69
2023-03-06T23:03:48.661Z,99461.31
2023-03-06T23:06:17.332Z,99465.75
2023-03-06T23:08:45.192Z,99451.00
2023-03-06T23:11:13.706Z,99453.63
2023-03-06T23:13:41.374Z,99445.69
2023-03-06T23:16:09.269Z,99444.69
2023-03-06T23:18:38.494Z,99439.28
2023-03-06T23:21:07.750Z,99440.22
2023-03-06T23:23:35.491Z,99436.84
2023-03-06T23:26:03.671Z,99423.72
2023-03-06T23:28:31.332Z,99418.50
2023-03-06T23:30:59.084Z,99411.50
2023-03-06T23:33:26.973Z,99401.97
2023-03-06T23:35:56.082Z,99394.09
2023-03-06T23:38:23.843Z,99387.94
2023-03-06T23:40:51.546Z,99387.03
2023-03-06T23:43:19.234Z,99386.16
2023-03-06T23:45:53.563Z,99382.69
2023-03-06T23:48:21.313Z,99375.75
2023-03-06T23:50:49.158Z,99377.53
2023-03-06T23:53:18.293Z,99371.38
2023-03-06T23:55:46.520Z,99365.25
2023-03-06T23:58:14.598Z,99365.25
